sensor_id;sensor_type;location;lat;lon;timestamp;pressure;altitude;pressure_sealevel;temperature;humidity
47556;BME280;33291;46.222;26.460;2023-03-14T00:00:07;96437.22;;;1.31;65.05
47556;BME280;33291;46.222;26.460;2023-03-14T00:02:34;96448.22;;;1.33;64.80
47556;BME280;33291;46.222;26.460;2023-03-14T00:05:00;96442.13;;;1.35;64.77
47556;BME280;33291;46.222;26.460;2023-03-14T00:07:27;96444.69;;;1.35;65.08
47556;BME280;33291;46.222;26.460;2023-03-14T00:09:53;96427.44;;;1.21;65.86
47556;BME280;33291;46.222;26.460;2023-03-14T00:12:19;96444.84;;;1.32;65.23
47556;BME280;33291;46.222;26.460;2023-03-14T00:14:44;96438.88;;;1.32;65.08
47556;BME280;33291;46.222;26.460;2023-03-14T00:17:09;96421.91;;;1.29;64.36
47556;BME280;33291;46.222;26.460;2023-03-14T00:19:35;96424.06;;;1.37;65.55
47556;BME280;33291;46.222;26.460;2023-03-14T00:22:00;96416.53;;;1.34;65.32
47556;BME280;33291;46.222;26.460;2023-03-14T00:24:26;96396.91;;;1.17;65.87
47556;BME280;33291;46.222;26.460;2023-03-14T00:26:51;96415.47;;;1.22;67.06
47556;BME280;33291;46.222;26.460;2023-03-14T00:29:17;96407.25;;;1.15;66.99
47556;BME280;33291;46.222;26.460;2023-03-14T00:31:42;96396.25;;;1.13;66.69
47556;BME280;33291;46.222;26.460;2023-03-14T00:34:08;96399.47;;;1.17;66.25
47556;BME280;33291;46.222;26.460;2023-03-14T00:36:33;96385.09;;;1.14;65.76
47556;BME280;33291;46.222;26.460;2023-03-14T00:38:59;96390.69;;;1.21;65.43
47556;BME280;33291;46.222;26.460;2023-03-14T00:41:24;96377.78;;;1.22;65.28
47556;BME280;33291;46.222;26.460;2023-03-14T00:43:51;96364.88;;;1.24;64.88
47556;BME280;33291;46.222;26.460;2023-03-14T00:46:17;96376.38;;;1.33;65.88
47556;BME280;33291;46.222;26.460;2023-03-14T00:48:44;96365.56;;;1.28;66.07
47556;BME280;33291;46.222;26.460;2023-03-14T00:51:10;96370.84;;;1.24;66.94
47556;BME280;33291;46.222;26.460;2023-03-14T00:53:37;96365.13;;;1.19;67.23
47556;BME280;33291;46.222;26.460;2023-03-14T00:56:05;96344.38;;;1.08;67.39
47556;BME280;33291;46.222;26.460;2023-03-14T00:58:31;96352.63;;;1.13;67.38
47556;BME280;33291;46.222;26.460;2023-03-14T01:00:57;96358.41;;;1.17;67.48
47556;BME280;33291;46.222;26.460;2023-03-14T01:03:22;96362.34;;;1.08;67.77
47556;BME280;33291;46.222;26.460;2023-03-14T01:05:49;96349.69;;;1.05;67.95
47556;BME280;33291;46.222;26.460;2023-03-14T01:08:14;96348.00;;;1.04;68.47
47556;BME280;33291;46.222;26.460;2023-03-14T01:10:41;96343.78;;;1.03;68.69
47556;BME280;33291;46.222;26.460;2023-03-14T01:13:07;96336.19;;;1.01;68.10
47556;BME280;33291;46.222;26.460;2023-03-14T01:15:33;96321.13;;;0.95;68.38
47556;BME280;33291;46.222;26.460;2023-03-14T01:17:59;96320.88;;;1.00;68.23
47556;BME280;33291;46.222;26.460;2023-03-14T01:20:24;96307.41;;;0.96;67.99
47556;BME280;33291;46.222;26.460;2023-03-14T01:22:50;96318.38;;;0.98;68.30
47556;BME280;33291;46.222;26.460;2023-03-14T01:25:16;96321.22;;;0.94;68.77
47556;BME280;33291;46.222;26.460;2023-03-14T01:27:42;96323.03;;;0.92;68.68
47556;BME280;33291;46.222;26.460;2023-03-14T01:30:09;96312.34;;;0.83;69.46
47556;BME280;33291;46.222;26.460;2023-03-14T01:32:35;96305.44;;;0.85;69.35
47556;BME280;33291;46.222;26.460;2023-03-14T01:35:00;96294.41;;;0.83;69.09
47556;BME280;33291;46.222;26.460;2023-03-14T01:37:26;96300.72;;;0.78;69.86
47556;BME280;33291;46.222;26.460;2023-03-14T01:39:51;96288.16;;;0.73;69.45
47556;BME280;33291;46.222;26.460;2023-03-14T01:42:17;96296.41;;;0.78;69.78
47556;BME280;33291;46.222;26.460;2023-03-14T01:47:17;96301.88;;;0.72;69.92
47556;BME280;33291;46.222;26.460;2023-03-14T01:49:43;96298.81;;;0.65;70.89
47556;BME280;33291;46.222;26.460;2023-03-14T01:52:13;96304.66;;;0.51;70.77
47556;BME280;33291;46.222;26.460;2023-03-14T01:54:44;96309.06;;;0.49;71.17
47556;BME280;33291;46.222;26.460;2023-03-14T01:57:18;96318.16;;;0.55;71.06
47556;BME280;33291;46.222;26.460;2023-03-14T01:59:59;96323.69;;;0.63;70.81
47556;BME280;33291;46.222;26.460;2023-03-14T02:02:26;96296.31;;;0.48;70.76
47556;BME280;33291;46.222;26.460;2023-03-14T02:04:54;96309.28;;;0.61;70.53
47556;BME280;33291;46.222;26.460;2023-03-14T02:09:59;96320.72;;;0.55;70.63
47556;BME280;33291;46.222;26.460;2023-03-14T02:12:26;96316.75;;;0.49;71.42
47556;BME280;33291;46.222;26.460;2023-03-14T02:14:53;96315.06;;;0.48;71.73
47556;BME280;33291;46.222;26.460;2023-03-14T02:17:19;96311.78;;;0.46;71.62
47556;BME280;33291;46.222;26.460;2023-03-14T02:22:25;96314.19;;;0.49;71.59
47556;BME280;33291;46.222;26.460;2023-03-14T02:25:08;96309.72;;;0.37;73.07
47556;BME280;33291;46.222;26.460;2023-03-14T02:27:36;96310.19;;;0.44;72.75
47556;BME280;33291;46.222;26.460;2023-03-14T02:30:06;96307.88;;;0.39;72.70
47556;BME280;33291;46.222;26.460;2023-03-14T02:32:34;96307.16;;;0.37;72.76
47556;BME280;33291;46.222;26.460;2023-03-14T02:35:05;96300.34;;;0.36;72.75
47556;BME280;33291;46.222;26.460;2023-03-14T02:37:39;96305.31;;;0.39;72.47
47556;BME280;33291;46.222;26.460;2023-03-14T02:40:06;96320.19;;;0.48;72.88
47556;BME280;33291;46.222;26.460;2023-03-14T02:42:32;96310.44;;;0.39;72.99
47556;BME280;33291;46.222;26.460;2023-03-14T02:47:33;96301.84;;;0.40;72.69
47556;BME280;33291;46.222;26.460;2023-03-14T02:50:04;96295.22;;;0.36;72.85
47556;BME280;33291;46.222;26.460;2023-03-14T02:52:31;96300.19;;;0.39;72.74
47556;BME280;33291;46.222;26.460;2023-03-14T02:54:57;96301.69;;;0.43;72.71
47556;BME280;33291;46.222;26.460;2023-03-14T02:57:22;96299.94;;;0.44;72.19
47556;BME280;33291;46.222;26.460;2023-03-14T02:59:48;96306.97;;;0.40;72.74
47556;BME280;33291;46.222;26.460;2023-03-14T03:02:13;96294.75;;;0.29;72.96
47556;BME280;33291;46.222;26.460;2023-03-14T03:04:38;96299.63;;;0.34;73.10
47556;BME280;33291;46.222;26.460;2023-03-14T03:07:04;96301.44;;;0.32;73.23
47556;BME280;33291;46.222;26.460;2023-03-14T03:09:29;96293.16;;;0.27;73.13
47556;BME280;33291;46.222;26.460;2023-03-14T03:11:55;96300.09;;;0.25;73.67
47556;BME280;33291;46.222;26.460;2023-03-14T03:14:20;96289.72;;;0.10;74.28
47556;BME280;33291;46.222;26.460;2023-03-14T03:16:46;96304.78;;;0.16;74.13
47556;BME280;33291;46.222;26.460;2023-03-14T03:19:11;96262.97;;;0.00;73.99
47556;BME280;33291;46.222;26.460;2023-03-14T03:21:39;96296.63;;;0.26;73.74
47556;BME280;33291;46.222;26.460;2023-03-14T03:24:04;96292.25;;;0.28;73.50
47556;BME280;33291;46.222;26.460;2023-03-14T03:26:30;96281.25;;;0.26;73.57
47556;BME280;33291;46.222;26.460;2023-03-14T03:28:55;96282.16;;;0.25;73.78
47556;BME280;33291;46.222;26.460;2023-03-14T03:31:21;96283.66;;;0.29;73.94
47556;BME280;33291;46.222;26.460;2023-03-14T03:33:47;96281.09;;;0.29;74.25
47556;BME280;33291;46.222;26.460;2023-03-14T03:36:12;96279.53;;;0.26;74.52
47556;BME280;33291;46.222;26.460;2023-03-14T03:38:38;96282.34;;;0.22;74.51
47556;BME280;33291;46.222;26.460;2023-03-14T03:41:07;96288.94;;;0.26;74.77
47556;BME280;33291;46.222;26.460;2023-03-14T03:43:33;96273.72;;;0.23;74.41
47556;BME280;33291;46.222;26.460;2023-03-14T03:46:02;96278.84;;;0.23;74.31
47556;BME280;33291;46.222;26.460;2023-03-14T03:48:28;96268.19;;;0.14;74.27
47556;BME280;33291;46.222;26.460;2023-03-14T03:50:53;96275.53;;;0.21;74.70
47556;BME280;33291;46.222;26.460;2023-03-14T03:53:19;96273.63;;;0.24;74.75
47556;BME280;33291;46.222;26.460;2023-03-14T03:55:44;96273.06;;;0.19;75.58
47556;BME280;33291;46.222;26.460;2023-03-14T03:58:10;96263.06;;;0.14;75.45
47556;BME280;33291;46.222;26.460;2023-03-14T04:00:35;96280.50;;;0.24;75.35
47556;BME280;33291;46.222;26.460;2023-03-14T04:03:01;96278.03;;;0.22;75.46
47556;BME280;33291;46.222;26.460;2023-03-14T04:05:26;96277.03;;;0.25;75.42
47556;BME280;33291;46.222;26.460;2023-03-14T04:07:52;96267.78;;;0.22;75.75
47556;BME280;33291;46.222;26.460;2023-03-14T04:10:17;96267.78;;;0.22;76.09
47556;BME280;33291;46.222;26.460;2023-03-14T04:12:43;96267.63;;;0.25;76.17
47556;BME280;33291;46.222;26.460;2023-03-14T04:15:08;96244.81;;;0.21;75.76
47556;BME280;33291;46.222;26.460;2023-03-14T04:17:34;96249.94;;;0.21;77.25
47556;BME280;33291;46.222;26.460;2023-03-14T04:19:59;96266.81;;;0.25;77.18
47556;BME280;33291;46.222;26.460;2023-03-14T04:22:25;96264.16;;;0.26;76.75
47556;BME280;33291;46.222;26.460;2023-03-14T04:24:50;96252.09;;;0.28;75.94
47556;BME280;33291;46.222;26.460;2023-03-14T04:27:16;96257.88;;;0.32;76.23
47556;BME280;33291;46.222;26.460;2023-03-14T04:29:42;96257.88;;;0.32;76.69
47556;BME280;33291;46.222;26.460;2023-03-14T04:32:08;96247.03;;;0.27;76.92
47556;BME280;33291;46.222;26.460;2023-03-14T04:34:33;96233.91;;;0.17;77.05
47556;BME280;33291;46.222;26.460;2023-03-14T04:36:59;96235.94;;;0.10;77.14
47556;BME280;33291;46.222;26.460;2023-03-14T04:39:24;96248.78;;;0.26;77.31
47556;BME280;33291;46.222;26.460;2023-03-14T04:41:50;96250.50;;;0.26;77.29
47556;BME280;33291;46.222;26.460;2023-03-14T04:44:15;96254.88;;;0.24;77.94
47556;BME280;33291;46.222;26.460;2023-03-14T04:46:40;96262.25;;;0.30;77.47
47556;BME280;33291;46.222;26.460;2023-03-14T04:49:06;96247.13;;;0.25;77.27
47556;BME280;33291;46.222;26.460;2023-03-14T04:51:31;96244.31;;;0.30;77.47
47556;BME280;33291;46.222;26.460;2023-03-14T04:53:57;96231.84;;;0.24;77.58
47556;BME280;33291;46.222;26.460;2023-03-14T04:56:22;96244.91;;;0.35;77.63
47556;BME280;33291;46.222;26.460;2023-03-14T04:58:48;96247.31;;;0.38;77.73
47556;BME280;33291;46.222;26.460;2023-03-14T05:01:13;96248.13;;;0.39;77.30
47556;BME280;33291;46.222;26.460;2023-03-14T05:03:39;96248.13;;;0.39;77.88
47556;BME280;33291;46.222;26.460;2023-03-14T05:06:05;96245.22;;;0.45;77.84
47556;BME280;33291;46.222;26.460;2023-03-14T05:08:30;96233.41;;;0.42;77.78
47556;BME280;33291;46.222;26.460;2023-03-14T05:10:57;96231.69;;;0.43;77.94
47556;BME280;33291;46.222;26.460;2023-03-14T05:13:23;96237.22;;;0.51;77.97
47556;BME280;33291;46.222;26.460;2023-03-14T05:15:48;96244.81;;;0.52;78.09
47556;BME280;33291;46.222;26.460;2023-03-14T05:18:16;96242.09;;;0.56;78.02
47556;BME280;33291;46.222;26.460;2023-03-14T05:20:41;96242.66;;;0.61;77.46
47556;BME280;33291;46.222;26.460;2023-03-14T05:23:09;96209.34;;;0.45;77.96
47556;BME280;33291;46.222;26.460;2023-03-14T05:25:34;96240.16;;;0.75;77.01
47556;BME280;33291;46.222;26.460;2023-03-14T05:28:00;96234.53;;;0.84;76.83
47556;BME280;33291;46.222;26.460;2023-03-14T05:30:25;96238.25;;;0.95;75.69
47556;BME280;33291;46.222;26.460;2023-03-14T05:32:53;96228.19;;;1.06;74.58
47556;BME280;33291;46.222;26.460;2023-03-14T05:35:18;96225.63;;;1.06;74.45
47556;BME280;33291;46.222;26.460;2023-03-14T05:37:44;96226.19;;;1.11;74.64
47556;BME280;33291;46.222;26.460;2023-03-14T05:40:10;96231.78;;;1.18;74.29
47556;BME280;33291;46.222;26.460;2023-03-14T05:42:36;96226.31;;;1.24;74.65
47556;BME280;33291;46.222;26.460;2023-03-14T05:45:01;96221.84;;;1.28;74.44
47556;BME280;33291;46.222;26.460;2023-03-14T05:47:27;96222.94;;;1.38;73.60
47556;BME280;33291;46.222;26.460;2023-03-14T05:49:53;96219.84;;;1.47;73.96
47556;BME280;33291;46.222;26.460;2023-03-14T05:52:19;96213.63;;;1.51;73.15
47556;BME280;33291;46.222;26.460;2023-03-14T05:54:45;96202.25;;;1.55;72.60
47556;BME280;33291;46.222;26.460;2023-03-14T05:57:10;96208.50;;;1.80;71.98
47556;BME280;33291;46.222;26.460;2023-03-14T05:59:36;96206.31;;;1.88;71.69
47556;BME280;33291;46.222;26.460;2023-03-14T06:02:01;96205.94;;;1.94;71.33
47556;BME280;33291;46.222;26.460;2023-03-14T06:04:27;96196.38;;;1.97;71.77
47556;BME280;33291;46.222;26.460;2023-03-14T06:06:52;96189.78;;;2.07;71.33
47556;BME280;33291;46.222;26.460;2023-03-14T06:09:18;96189.41;;;2.13;70.65
47556;BME280;33291;46.222;26.460;2023-03-14T06:11:45;96184.22;;;2.27;70.80
47556;BME280;33291;46.222;26.460;2023-03-14T06:14:11;96200.34;;;2.44;69.56
47556;BME280;33291;46.222;26.460;2023-03-14T06:16:37;96189.38;;;2.55;69.42
47556;BME280;33291;46.222;26.460;2023-03-14T06:19:02;96180.16;;;2.65;68.63
47556;BME280;33291;46.222;26.460;2023-03-14T06:21:28;96172.78;;;2.73;68.20
47556;BME280;33291;46.222;26.460;2023-03-14T06:23:53;96176.75;;;2.92;68.30
47556;BME280;33291;46.222;26.460;2023-03-14T06:26:19;96167.88;;;2.96;67.82
47556;BME280;33291;46.222;26.460;2023-03-14T06:28:44;96184.72;;;3.14;68.14
47556;BME280;33291;46.222;26.460;2023-03-14T06:31:10;96180.50;;;3.26;67.51
47556;BME280;33291;46.222;26.460;2023-03-14T06:33:35;96176.19;;;3.40;66.57
47556;BME280;33291;46.222;26.460;2023-03-14T06:36:01;96177.81;;;3.53;65.46
47556;BME280;33291;46.222;26.460;2023-03-14T06:38:26;96166.50;;;3.56;64.41
47556;BME280;33291;46.222;26.460;2023-03-14T06:40:52;96162.06;;;3.71;63.26
47556;BME280;33291;46.222;26.460;2023-03-14T06:43:17;96158.44;;;3.86;62.96
47556;BME280;33291;46.222;26.460;2023-03-14T06:45:43;96158.19;;;4.02;62.33
47556;BME280;33291;46.222;26.460;2023-03-14T06:48:08;96162.28;;;4.18;63.00
47556;BME280;33291;46.222;26.460;2023-03-14T06:50:34;96155.44;;;4.30;61.18
47556;BME280;33291;46.222;26.460;2023-03-14T06:52:59;96149.31;;;4.43;60.04
47556;BME280;33291;46.222;26.460;2023-03-14T06:55:25;96146.34;;;4.61;60.32
47556;BME280;33291;46.222;26.460;2023-03-14T06:57:51;96144.06;;;4.80;58.34
47556;BME280;33291;46.222;26.460;2023-03-14T07:00:16;96142.34;;;4.92;58.87
47556;BME280;33291;46.222;26.460;2023-03-14T07:02:42;96138.75;;;5.06;58.30
47556;BME280;33291;46.222;26.460;2023-03-14T07:05:08;96128.31;;;5.19;57.74
47556;BME280;33291;46.222;26.460;2023-03-14T07:07:35;96115.09;;;5.35;57.68
47556;BME280;33291;46.222;26.460;2023-03-14T07:10:00;96119.56;;;5.56;57.08
47556;BME280;33291;46.222;26.460;2023-03-14T07:12:26;96103.03;;;5.69;56.22
47556;BME280;33291;46.222;26.460;2023-03-14T07:14:51;96097.13;;;5.79;56.08
47556;BME280;33291;46.222;26.460;2023-03-14T07:17:17;96087.94;;;5.86;55.62
47556;BME280;33291;46.222;26.460;2023-03-14T07:19:42;96106.97;;;6.19;55.34
47556;BME280;33291;46.222;26.460;2023-03-14T07:22:08;96094.84;;;6.31;54.61
47556;BME280;33291;46.222;26.460;2023-03-14T07:24:33;96081.59;;;6.45;54.38
47556;BME280;33291;46.222;26.460;2023-03-14T07:26:59;96083.97;;;6.69;54.38
47556;BME280;33291;46.222;26.460;2023-03-14T07:29:24;96074.97;;;6.85;53.79
47556;BME280;33291;46.222;26.460;2023-03-14T07:31:50;96058.94;;;6.91;52.60
47556;BME280;33291;46.222;26.460;2023-03-14T07:34:15;96082.16;;;7.23;52.37
47556;BME280;33291;46.222;26.460;2023-03-14T07:36:41;96082.56;;;7.28;51.74
47556;BME280;33291;46.222;26.460;2023-03-14T07:39:06;96069.06;;;7.25;52.06
47556;BME280;33291;46.222;26.460;2023-03-14T07:41:32;96068.41;;;7.33;51.87
47556;BME280;33291;46.222;26.460;2023-03-14T07:43:57;96078.41;;;7.37;50.67
47556;BME280;33291;46.222;26.460;2023-03-14T07:46:23;96054.13;;;7.38;51.43
47556;BME280;33291;46.222;26.460;2023-03-14T07:48:49;96059.66;;;7.55;51.63
47556;BME280;33291;46.222;26.460;2023-03-14T07:51:15;96061.59;;;7.62;51.99
47556;BME280;33291;46.222;26.460;2023-03-14T07:53:40;96052.22;;;7.81;50.70
47556;BME280;33291;46.222;26.460;2023-03-14T07:56:06;96049.50;;;7.92;50.25
47556;BME280;33291;46.222;26.460;2023-03-14T07:58:32;96043.25;;;8.05;50.29
47556;BME280;33291;46.222;26.460;2023-03-14T08:00:59;96046.97;;;8.31;50.47
47556;BME280;33291;46.222;26.460;2023-03-14T08:03:25;96043.63;;;8.50;50.36
47556;BME280;33291;46.222;26.460;2023-03-14T08:05:50;96033.88;;;8.62;50.22
47556;BME280;33291;46.222;26.460;2023-03-14T08:08:17;96033.72;;;8.83;48.94
47556;BME280;33291;46.222;26.460;2023-03-14T08:10:43;96035.88;;;9.07;48.65
47556;BME280;33291;46.222;26.460;2023-03-14T08:13:09;96027.44;;;9.33;48.38
47556;BME280;33291;46.222;26.460;2023-03-14T08:15:35;96029.03;;;9.54;46.93
47556;BME280;33291;46.222;26.460;2023-03-14T08:18:00;96021.34;;;9.80;45.90
47556;BME280;33291;46.222;26.460;2023-03-14T08:20:28;96012.53;;;10.09;44.32
47556;BME280;33291;46.222;26.460;2023-03-14T08:22:59;96020.59;;;10.52;42.32
47556;BME280;33291;46.222;26.460;2023-03-14T08:25:25;96005.88;;;10.87;38.65
47556;BME280;33291;46.222;26.460;2023-03-14T08:27:51;96007.75;;;11.20;36.09
47556;BME280;33291;46.222;26.460;2023-03-14T08:30:18;96002.34;;;11.56;35.19
47556;BME280;33291;46.222;26.460;2023-03-14T08:32:44;96000.19;;;11.86;34.24
47556;BME280;33291;46.222;26.460;2023-03-14T08:35:10;95993.41;;;12.18;33.69
47556;BME280;33291;46.222;26.460;2023-03-14T08:37:36;95988.88;;;12.37;33.58
47556;BME280;33291;46.222;26.460;2023-03-14T08:40:03;95979.41;;;12.60;32.56
47556;BME280;33291;46.222;26.460;2023-03-14T08:42:34;95979.53;;;12.84;32.41
47556;BME280;33291;46.222;26.460;2023-03-14T08:44:59;95979.34;;;13.02;32.25
47556;BME280;33291;46.222;26.460;2023-03-14T08:47:25;95978.66;;;13.16;31.83
47556;BME280;33291;46.222;26.460;2023-03-14T08:49:50;95981.25;;;13.41;31.10
47556;BME280;33291;46.222;26.460;2023-03-14T08:52:16;95951.13;;;13.45;31.00
47556;BME280;33291;46.222;26.460;2023-03-14T08:54:43;95970.28;;;13.77;29.96
47556;BME280;33291;46.222;26.460;2023-03-14T08:57:09;95970.69;;;13.97;29.17
47556;BME280;33291;46.222;26.460;2023-03-14T08:59:34;95961.59;;;14.08;29.27
47556;BME280;33291;46.222;26.460;2023-03-14T09:02:01;95958.84;;;14.24;29.45
47556;BME280;33291;46.222;26.460;2023-03-14T09:04:32;95961.34;;;14.40;29.73
47556;BME280;33291;46.222;26.460;2023-03-14T09:06:58;95953.63;;;14.47;29.26
47556;BME280;33291;46.222;26.460;2023-03-14T09:09:27;95933.09;;;14.51;28.95
47556;BME280;33291;46.222;26.460;2023-03-14T09:11:53;95950.63;;;14.73;28.19
47556;BME280;33291;46.222;26.460;2023-03-14T09:14:18;95932.53;;;14.79;27.99
47556;BME280;33291;46.222;26.460;2023-03-14T09:16:44;95940.00;;;15.05;28.05
47556;BME280;33291;46.222;26.460;2023-03-14T09:19:10;95933.94;;;15.19;27.76
47556;BME280;33291;46.222;26.460;2023-03-14T09:21:35;95913.41;;;15.23;27.57
47556;BME280;33291;46.222;26.460;2023-03-14T09:24:01;95921.25;;;15.38;28.11
47556;BME280;33291;46.222;26.460;2023-03-14T09:26:27;95929.75;;;15.55;26.74
47556;BME280;33291;46.222;26.460;2023-03-14T09:28:52;95917.13;;;15.65;26.47
47556;BME280;33291;46.222;26.460;2023-03-14T09:31:18;95902.06;;;15.74;27.16
47556;BME280;33291;46.222;26.460;2023-03-14T09:33:43;95915.81;;;15.91;26.93
47556;BME280;33291;46.222;26.460;2023-03-14T09:36:09;95881.06;;;15.89;26.71
47556;BME280;33291;46.222;26.460;2023-03-14T09:38:35;95900.09;;;16.12;26.73
47556;BME280;33291;46.222;26.460;2023-03-14T09:41:06;95904.44;;;16.27;26.75
47556;BME280;33291;46.222;26.460;2023-03-14T09:43:37;95900.44;;;16.31;26.63
47556;BME280;33291;46.222;26.460;2023-03-14T09:46:04;95889.97;;;16.38;26.61
47556;BME280;33291;46.222;26.460;2023-03-14T09:48:32;95887.16;;;16.39;26.26
47556;BME280;33291;46.222;26.460;2023-03-14T09:51:01;95892.34;;;16.61;25.62
47556;BME280;33291;46.222;26.460;2023-03-14T09:53:46;95881.91;;;16.67;25.46
47556;BME280;33291;46.222;26.460;2023-03-14T09:56:26;95866.53;;;16.71;25.24
47556;BME280;33291;46.222;26.460;2023-03-14T09:59:05;95859.47;;;16.72;25.00
47556;BME280;33291;46.222;26.460;2023-03-14T10:01:32;95870.06;;;16.85;23.65
47556;BME280;33291;46.222;26.460;2023-03-14T10:04:04;95867.75;;;16.97;23.15
47556;BME280;33291;46.222;26.460;2023-03-14T10:06:31;95871.81;;;16.99;22.82
47556;BME280;33291;46.222;26.460;2023-03-14T10:08:57;95866.75;;;16.98;22.94
47556;BME280;33291;46.222;26.460;2023-03-14T10:11:23;95859.06;;;17.03;23.38
47556;BME280;33291;46.222;26.460;2023-03-14T10:13:50;95840.19;;;16.93;23.63
47556;BME280;33291;46.222;26.460;2023-03-14T10:16:32;95862.75;;;17.09;24.12
47556;BME280;33291;46.222;26.460;2023-03-14T10:19:03;95865.41;;;17.15;24.18
47556;BME280;33291;46.222;26.460;2023-03-14T10:21:30;95849.53;;;17.02;25.06
47556;BME280;33291;46.222;26.460;2023-03-14T10:24:22;95844.09;;;17.03;24.92
47556;BME280;33291;46.222;26.460;2023-03-14T10:26:52;95834.00;;;17.07;24.84
47556;BME280;33291;46.222;26.460;2023-03-14T10:29:18;95838.47;;;17.13;21.37
47556;BME280;33291;46.222;26.460;2023-03-14T10:31:51;95838.72;;;17.25;21.63
47556;BME280;33291;46.222;26.460;2023-03-14T10:34:22;95827.81;;;17.35;20.85
47556;BME280;33291;46.222;26.460;2023-03-14T10:36:52;95828.06;;;17.40;22.84
47556;BME280;33291;46.222;26.460;2023-03-14T10:42:19;95828.25;;;17.45;22.75
47556;BME280;33291;46.222;26.460;2023-03-14T10:44:49;95804.97;;;17.42;20.80
47556;BME280;33291;46.222;26.460;2023-03-14T10:47:22;95807.19;;;17.52;19.80
47556;BME280;33291;46.222;26.460;2023-03-14T10:49:48;95805.00;;;17.62;20.31
47556;BME280;33291;46.222;26.460;2023-03-14T10:52:20;95789.59;;;17.66;19.88
47556;BME280;33291;46.222;26.460;2023-03-14T10:54:59;95786.41;;;17.70;18.45
47556;BME280;33291;46.222;26.460;2023-03-14T10:57:25;95784.97;;;17.81;18.16
47556;BME280;33291;46.222;26.460;2023-03-14T10:59:51;95768.78;;;17.84;18.53
47556;BME280;33291;46.222;26.460;2023-03-14T11:02:44;95768.81;;;17.98;16.80
47556;BME280;33291;46.222;26.460;2023-03-14T11:07:44;95762.31;;;18.07;17.18
47556;BME280;33291;46.222;26.460;2023-03-14T11:13:13;95746.03;;;18.37;17.17
47556;BME280;33291;46.222;26.460;2023-03-14T11:21:11;95730.75;;;18.65;16.81
47556;BME280;33291;46.222;26.460;2023-03-14T11:23:46;95723.63;;;18.73;16.67
47556;BME280;33291;46.222;26.460;2023-03-14T11:26:26;95721.78;;;18.80;15.27
47556;BME280;33291;46.222;26.460;2023-03-14T11:29:02;95709.59;;;18.79;17.06
47556;BME280;33291;46.222;26.460;2023-03-14T11:31:35;95709.16;;;18.82;19.48
47556;BME280;33291;46.222;26.460;2023-03-14T11:36:41;95699.84;;;18.86;20.41
47556;BME280;33291;46.222;26.460;2023-03-14T11:39:15;95691.09;;;18.92;19.79
47556;BME280;33291;46.222;26.460;2023-03-14T11:41:55;95682.38;;;18.92;19.73
47556;BME280;33291;46.222;26.460;2023-03-14T11:44:27;95688.03;;;18.95;20.03
47556;BME280;33291;46.222;26.460;2023-03-14T11:50:14;95665.50;;;18.93;19.72
47556;BME280;33291;46.222;26.460;2023-03-14T11:52:50;95638.53;;;18.84;19.67
47556;BME280;33291;46.222;26.460;2023-03-14T11:55:32;95656.94;;;18.97;20.72
47556;BME280;33291;46.222;26.460;2023-03-14T11:58:25;95648.44;;;18.95;20.63
47556;BME280;33291;46.222;26.460;2023-03-14T12:00:54;95653.72;;;18.95;20.67
47556;BME280;33291;46.222;26.460;2023-03-14T12:03:35;95650.50;;;18.93;20.69
47556;BME280;33291;46.222;26.460;2023-03-14T12:11:24;95639.84;;;18.68;21.02
47556;BME280;33291;46.222;26.460;2023-03-14T12:13:53;95627.09;;;18.58;20.81
47556;BME280;33291;46.222;26.460;2023-03-14T12:16:37;95632.31;;;18.72;20.66
47556;BME280;33291;46.222;26.460;2023-03-14T12:19:26;95633.66;;;18.81;21.02
47556;BME280;33291;46.222;26.460;2023-03-14T12:21:59;95629.00;;;18.83;21.51
47556;BME280;33291;46.222;26.460;2023-03-14T12:24:26;95624.72;;;18.89;21.35
47556;BME280;33291;46.222;26.460;2023-03-14T12:26:56;95618.00;;;18.93;22.09
47556;BME280;33291;46.222;26.460;2023-03-14T12:29:23;95614.50;;;18.99;21.62
47556;BME280;33291;46.222;26.460;2023-03-14T12:32:07;95615.78;;;18.96;21.68
47556;BME280;33291;46.222;26.460;2023-03-14T12:34:34;95624.84;;;19.00;21.20
47556;BME280;33291;46.222;26.460;2023-03-14T12:42:54;95621.88;;;18.90;21.31
47556;BME280;33291;46.222;26.460;2023-03-14T12:45:35;95622.06;;;18.95;21.39
47556;BME280;33291;46.222;26.460;2023-03-14T12:50:55;95613.88;;;19.04;21.17
47556;BME280;33291;46.222;26.460;2023-03-14T12:56:00;95604.59;;;18.94;21.66
47556;BME280;33291;46.222;26.460;2023-03-14T12:59:05;95597.66;;;19.00;20.36
47556;BME280;33291;46.222;26.460;2023-03-14T13:01:35;95596.88;;;18.99;20.02
47556;BME280;33291;46.222;26.460;2023-03-14T13:04:09;95587.38;;;18.92;19.52
47556;BME280;33291;46.222;26.460;2023-03-14T13:06:56;95584.13;;;18.90;19.74
47556;BME280;33291;46.222;26.460;2023-03-14T13:12:03;95575.63;;;18.81;20.36
47556;BME280;33291;46.222;26.460;2023-03-14T13:14:34;95577.91;;;18.77;21.69
47556;BME280;33291;46.222;26.460;2023-03-14T13:17:01;95574.75;;;18.62;20.70
47556;BME280;33291;46.222;26.460;2023-03-14T13:19:31;95566.66;;;18.57;20.95
47556;BME280;33291;46.222;26.460;2023-03-14T13:22:04;95558.19;;;18.48;21.06
47556;BME280;33291;46.222;26.460;2023-03-14T13:24:33;95557.00;;;18.44;21.02
47556;BME280;33291;46.222;26.460;2023-03-14T13:26:59;95563.69;;;18.46;21.13
47556;BME280;33291;46.222;26.460;2023-03-14T13:29:30;95552.56;;;18.38;21.16
47556;BME280;33291;46.222;26.460;2023-03-14T13:31:59;95546.94;;;18.27;20.46
47556;BME280;33291;46.222;26.460;2023-03-14T13:34:28;95557.91;;;18.24;20.80
47556;BME280;33291;46.222;26.460;2023-03-14T13:36:54;95557.31;;;18.22;20.37
47556;BME280;33291;46.222;26.460;2023-03-14T13:39:24;95550.38;;;18.28;20.51
47556;BME280;33291;46.222;26.460;2023-03-14T13:41:57;95550.16;;;18.36;20.23
47556;BME280;33291;46.222;26.460;2023-03-14T13:44:27;95539.13;;;18.46;19.58
47556;BME280;33291;46.222;26.460;2023-03-14T13:46:58;95540.50;;;18.55;19.89
47556;BME280;33291;46.222;26.460;2023-03-14T13:49:26;95543.25;;;18.67;19.54